Oswego, Oregon
Current Conditions -  °F | °C
As of 11:53 AM on Saturday 20 Dec 2014 (Local Time) from KUAO Reporting Station
Moderate Rain Moderate Rain  
Wind Chill: 51°   Ceiling: 6000
Heat Index: 51°   Visibility: 7mi
Dew Point: 49°   Wind: 13mph
Humidity: 92%   Direction: 190°S
Pressure: 29.69"   Gusts: 22mph
Location:  45.4082°N, 122.683°W
Report Text: KUAO 201953Z AUTO 19011G19KT 7SM RA BKN060 OVC075 11/09 A2969 RMK AO2 SLP054 P0014 T01060094
Loading
Personal Weather Stations






























Interactive Weather Map New forecast layout! Learn more

10-Day Weather Forecast

Advertisements
Track Severe Weather on mobile